Apple Valley, Idaho
Current Conditions -  °F | °C
As of 12:53 AM on Saturday 01 Nov 2014 (Local Time) from KONO Reporting Station
Clear Clear  
Wind Chill: 53°   Ceiling: Unl
Heat Index: 53°   Visibility: 10mi
Dew Point: 40°   Wind: 20mph
Humidity: 61%   Direction: 310°NW
Pressure: 29.63"   Gusts: NA
Location:  43.8067°N, 116.922°W
Report Text: KONO 010653Z AUTO 31017KT 10SM CLR 12/04 A2963 RMK AO2 SLP033 T01170044 401940044
Loading
Personal Weather Stations






























Interactive Weather Map
Tropical Storm Tracking
New forecast layout! Learn more

10-Day Weather Forecast

Advertisements
Track Severe Weather on mobile